Time;durP1;ratioP1;P1;durP2;ratioP2;P2;SDS_P1;SDS_P2;PMS_P1;PMS_P2;Temp;Humidity;BMP_temperature;BMP_pressure;BME280_temperature;BME280_humidity;BME280_pressure;Samples;Min_cycle;Max_cycle;Signal;HPM_P1;HPM_P2
2022/03/23 00:01:42;;;;;;;42.22;31.15;;;9.10;95.50;;;;;;5067932;28;37319;-56
2022/03/23 00:04:09;;;;;;;39.47;30.67;;;9.00;95.50;;;;;;5067890;27;36742;-56
2022/03/23 00:06:37;;;;;;;40.47;30.55;;;9.00;95.50;;;;;;5066315;27;38248;-56
2022/03/23 00:09:05;;;;;;;39.13;29.02;;;8.90;95.50;;;;;;5067571;27;37913;-56
2022/03/23 00:11:34;;;;;;;39.42;29.30;;;8.90;95.60;;;;;;5068165;27;38550;-56
2022/03/23 00:14:01;;;;;;;39.30;29.90;;;8.80;95.50;;;;;;5067385;28;38467;-56
2022/03/23 00:16:29;;;;;;;38.88;28.92;;;8.80;95.60;;;;;;5068173;27;38994;-56
2022/03/23 00:18:56;;;;;;;40.55;29.38;;;8.80;95.70;;;;;;5068370;27;36625;-56
2022/03/23 00:21:23;;;;;;;36.17;26.67;;;8.80;95.80;;;;;;5067327;27;38697;-56
2022/03/23 00:23:51;;;;;;;36.83;27.35;;;8.70;96.10;;;;;;5068775;27;36626;-56
2022/03/23 00:26:18;;;;;;;39.13;28.45;;;8.60;95.90;;;;;;5068348;27;37089;-56
2022/03/23 00:28:48;;;;;;;41.30;30.13;;;8.60;95.90;;;;;;5068873;27;37456;-56
2022/03/23 00:31:16;;;;;;;41.58;29.30;;;8.60;96.00;;;;;;5067398;27;37630;-56
2022/03/23 00:33:43;;;;;;;44.05;28.77;;;8.60;96.00;;;;;;5068279;27;36902;-56
2022/03/23 00:36:11;;;;;;;37.50;28.55;;;8.50;96.00;;;;;;5067703;28;36270;-56
2022/03/23 00:38:39;;;;;;;34.13;26.00;;;8.50;96.10;;;;;;5068192;27;36298;-56
2022/03/23 00:41:06;;;;;;;37.88;27.02;;;8.50;96.10;;;;;;5067866;28;43047;-56
2022/03/23 00:43:34;;;;;;;35.28;26.95;;;8.50;96.20;;;;;;5067810;28;38361;-56
2022/03/23 00:46:03;;;;;;;34.55;26.70;;;8.40;96.20;;;;;;5068105;27;37818;-56
2022/03/23 00:48:30;;;;;;;32.85;25.33;;;8.40;96.20;;;;;;5067935;27;36547;-56
2022/03/23 00:50:58;;;;;;;32.95;24.75;;;8.30;96.20;;;;;;5065219;27;39278;-56
2022/03/23 00:53:25;;;;;;;35.35;24.85;;;8.30;96.30;;;;;;5066256;27;36914;-55
2022/03/23 00:55:52;;;;;;;30.30;22.50;;;8.30;96.20;;;;;;5067815;27;35975;-56
2022/03/23 00:58:20;;;;;;;31.08;24.17;;;8.30;96.10;;;;;;5066030;27;38533;-56
2022/03/23 01:00:47;;;;;;;29.52;22.52;;;8.20;96.10;;;;;;5067166;27;37543;-55
2022/03/23 01:03:16;;;;;;;32.40;23.63;;;8.20;96.10;;;;;;5067544;27;36941;-56
2022/03/23 01:05:43;;;;;;;32.38;24.10;;;8.20;96.10;;;;;;5066970;27;36309;-56
2022/03/23 01:08:11;;;;;;;34.28;24.75;;;8.20;96.20;;;;;;5066894;27;38913;-56
2022/03/23 01:10:38;;;;;;;30.70;23.80;;;8.10;96.30;;;;;;5064363;28;38238;-56
2022/03/23 01:13:05;;;;;;;33.15;24.50;;;8.10;96.30;;;;;;5067255;28;36832;-56
2022/03/23 01:15:33;;;;;;;30.33;23.65;;;8.00;96.40;;;;;;5065804;27;38351;-58
2022/03/23 01:18:00;;;;;;;33.00;25.38;;;8.00;96.40;;;;;;5067711;28;38371;-56
2022/03/23 01:20:30;;;;;;;35.95;26.02;;;8.00;96.40;;;;;;5068202;28;37105;-56
2022/03/23 01:22:58;;;;;;;38.10;26.60;;;8.00;96.30;;;;;;5067669;28;36686;-56
2022/03/23 01:25:25;;;;;;;37.80;26.67;;;7.90;96.40;;;;;;5067299;28;36117;-56
2022/03/23 01:27:53;;;;;;;37.13;26.27;;;7.90;96.60;;;;;;5068065;27;38132;-56
2022/03/23 01:30:20;;;;;;;35.92;27.25;;;7.90;96.60;;;;;;5068348;28;37555;-56
2022/03/23 01:32:47;;;;;;;35.90;27.30;;;8.00;96.60;;;;;;5067896;27;36296;-56
2022/03/23 01:35:15;;;;;;;33.72;25.45;;;7.90;96.60;;;;;;5068997;28;37738;-56
2022/03/23 01:37:43;;;;;;;35.25;26.45;;;7.80;96.80;;;;;;5068470;28;36488;-56
2022/03/23 01:40:12;;;;;;;32.75;25.40;;;7.90;96.80;;;;;;5068427;28;36256;-56
2022/03/23 01:42:40;;;;;;;36.22;25.85;;;7.80;96.70;;;;;;5068723;28;35622;-56
2022/03/23 01:45:09;;;;;;;35.05;26.98;;;7.80;96.60;;;;;;5069014;28;36142;-56
2022/03/23 01:47:37;;;;;;;35.97;26.10;;;7.70;96.60;;;;;;5068451;28;36574;-56
2022/03/23 01:50:06;;;;;;;35.45;25.55;;;7.60;96.70;;;;;;5068649;28;38705;-56
2022/03/23 01:52:34;;;;;;;36.05;26.27;;;7.60;96.80;;;;;;5067469;27;37168;-55
2022/03/23 01:55:06;;;;;;;37.90;26.63;;;7.60;96.80;;;;;;5069010;28;37781;-56
2022/03/23 01:57:35;;;;;;;37.08;26.75;;;7.50;96.90;;;;;;5067179;27;36446;-56
2022/03/23 02:00:02;;;;;;;39.83;28.27;;;7.50;96.80;;;;;;5068072;27;36156;-56
2022/03/23 02:02:30;;;;;;;38.63;28.73;;;7.50;96.80;;;;;;5068487;28;38321;-56
2022/03/23 02:04:57;;;;;;;36.70;27.58;;;7.50;97.00;;;;;;5067732;27;38815;-56
2022/03/23 02:07:25;;;;;;;37.25;28.58;;;7.60;97.60;;;;;;5067651;28;36301;-56
2022/03/23 02:09:52;;;;;;;39.50;29.48;;;7.50;97.30;;;;;;5067723;28;41423;-56
2022/03/23 02:12:22;;;;;;;38.42;27.58;;;7.50;97.20;;;;;;5067916;28;37676;-54
2022/03/23 02:14:49;;;;;;;38.05;27.40;;;7.50;97.40;;;;;;5068543;28;37640;-56
2022/03/23 02:17:17;;;;;;;43.95;27.42;;;7.60;97.40;;;;;;5068527;27;37464;-56
2022/03/23 02:19:44;;;;;;;38.92;28.23;;;7.50;97.10;;;;;;5068456;28;37779;-56
2022/03/23 02:22:13;;;;;;;40.13;27.98;;;7.50;97.00;;;;;;5067832;27;36690;-55
2022/03/23 02:24:40;;;;;;;41.05;28.45;;;7.50;97.00;;;;;;5068895;28;39177;-55
2022/03/23 02:27:09;;;;;;;41.90;28.65;;;7.50;96.70;;;;;;5067076;28;38530;-56
2022/03/23 02:29:37;;;;;;;41.17;27.05;;;7.40;96.70;;;;;;5067988;27;37662;-56
2022/03/23 02:32:05;;;;;;;38.28;27.02;;;7.40;96.80;;;;;;5067444;28;37872;-56
2022/03/23 02:34:32;;;;;;;41.28;29.15;;;7.40;96.80;;;;;;5067358;28;36970;-55
2022/03/23 02:37:00;;;;;;;38.20;27.75;;;7.40;96.90;;;;;;5068641;27;37517;-56
2022/03/23 02:39:29;;;;;;;37.78;26.98;;;7.30;96.90;;;;;;5067599;27;39255;-56
2022/03/23 02:41:57;;;;;;;40.72;28.77;;;7.30;96.90;;;;;;5067603;27;36992;-56
2022/03/23 02:44:26;;;;;;;42.67;29.38;;;7.30;96.90;;;;;;5068350;27;38038;-55
2022/03/23 02:46:54;;;;;;;40.72;28.15;;;7.30;96.90;;;;;;5067548;27;37548;-56
2022/03/23 02:49:22;;;;;;;39.33;28.25;;;7.30;97.00;;;;;;5067215;28;35883;-56
2022/03/23 02:51:50;;;;;;;42.53;29.40;;;7.30;96.90;;;;;;5067979;27;36245;-56
2022/03/23 03:02:44;;;;;;;43.00;29.77;;;7.20;97.00;;;;;;5068526;28;40250;-57
2022/03/23 03:05:12;;;;;;;40.05;27.45;;;7.20;97.00;;;;;;5068363;27;37515;-55
2022/03/23 03:10:25;;;;;;;39.35;27.75;;;7.30;96.90;;;;;;5067898;28;42462;-56
2022/03/23 03:12:55;;;;;;;37.55;26.73;;;7.20;96.80;;;;;;5068289;27;36802;-55
2022/03/23 03:15:24;;;;;;;38.42;26.70;;;7.20;96.80;;;;;;5066968;28;38768;-56
2022/03/23 03:17:52;;;;;;;36.72;27.02;;;7.20;96.80;;;;;;5067235;28;38675;-56
2022/03/23 03:20:19;;;;;;;40.03;27.70;;;7.20;96.80;;;;;;5067687;28;40087;-56
2022/03/23 03:22:46;;;;;;;38.13;27.88;;;7.20;96.70;;;;;;5067270;27;37369;-56
2022/03/23 03:25:15;;;;;;;39.00;28.77;;;7.20;97.00;;;;;;5067400;28;36246;-56
2022/03/23 03:27:44;;;;;;;39.92;29.30;;;7.20;96.90;;;;;;5066356;28;36374;-56
2022/03/23 03:30:15;;;;;;;40.47;27.63;;;7.10;96.80;;;;;;5065601;28;37961;-52
2022/03/23 03:32:43;;;;;;;41.63;29.70;;;7.10;96.90;;;;;;5067939;27;35395;-52
2022/03/23 03:35:11;;;;;;;40.35;28.92;;;7.10;96.90;;;;;;5066519;28;37181;-52
2022/03/23 03:37:39;;;;;;;36.85;27.75;;;7.00;96.90;;;;;;5068180;27;39973;-53
2022/03/23 03:40:09;;;;;;;42.78;29.02;;;7.00;97.00;;;;;;5067777;27;38343;-52
2022/03/23 03:42:37;;;;;;;41.70;28.55;;;7.00;96.90;;;;;;5064301;27;36618;-52
2022/03/23 03:45:05;;;;;;;39.75;27.25;;;7.00;97.00;;;;;;5071301;27;37706;-50
2022/03/23 03:47:33;;;;;;;34.40;25.58;;;7.00;97.10;;;;;;5070248;27;37805;-52
2022/03/23 03:50:01;;;;;;;34.67;24.85;;;7.00;97.20;;;;;;5069570;27;38705;-49
2022/03/23 03:52:28;;;;;;;36.40;26.35;;;7.00;97.20;;;;;;5069080;28;35496;-52
2022/03/23 03:54:55;;;;;;;39.45;28.95;;;6.90;97.20;;;;;;5070122;27;37652;-52
2022/03/23 03:57:23;;;;;;;38.20;28.00;;;6.90;97.30;;;;;;5067924;28;38091;-50
2022/03/23 03:59:50;;;;;;;35.17;24.50;;;6.80;97.30;;;;;;5068534;27;36282;-53
2022/03/23 04:02:19;;;;;;;34.92;23.90;;;6.90;97.20;;;;;;5069785;27;36667;-52
2022/03/23 04:04:47;;;;;;;33.05;23.02;;;6.90;97.20;;;;;;5068555;27;38519;-51
2022/03/23 04:07:14;;;;;;;35.78;25.35;;;6.90;97.20;;;;;;5069981;27;38240;-50
2022/03/23 04:09:42;;;;;;;36.42;25.15;;;6.90;97.20;;;;;;5068804;28;37419;-53
2022/03/23 04:12:10;;;;;;;35.40;26.63;;;6.80;97.10;;;;;;5070831;27;37725;-52
2022/03/23 04:14:37;;;;;;;38.05;26.58;;;6.80;97.20;;;;;;5070744;27;37799;-52
2022/03/23 04:17:05;;;;;;;33.55;25.33;;;6.80;97.20;;;;;;5069499;28;37614;-53
2022/03/23 04:19:32;;;;;;;35.83;25.95;;;6.70;97.20;;;;;;5069757;28;36197;-51
2022/03/23 04:22:01;;;;;;;38.47;27.25;;;6.70;97.20;;;;;;5069954;27;36818;-49
2022/03/23 04:24:28;;;;;;;36.38;25.05;;;6.70;97.20;;;;;;5070195;27;38625;-53
2022/03/23 04:26:55;;;;;;;41.63;28.77;;;6.70;97.30;;;;;;5068037;28;38457;-49
2022/03/23 04:29:24;;;;;;;41.35;27.00;;;6.70;97.30;;;;;;5066931;27;36094;-52
2022/03/23 04:31:52;;;;;;;40.80;29.00;;;6.70;97.30;;;;;;5067293;27;35668;-52
2022/03/23 04:34:19;;;;;;;38.80;26.67;;;6.70;97.40;;;;;;5068625;27;38557;-52
2022/03/23 04:36:47;;;;;;;35.67;26.75;;;6.60;97.40;;;;;;5069620;27;38920;-50
2022/03/23 04:39:15;;;;;;;41.03;27.92;;;6.60;97.40;;;;;;5069404;27;36962;-53
2022/03/23 04:41:43;;;;;;;42.05;27.70;;;6.60;97.50;;;;;;5069989;28;35534;-53
2022/03/23 04:44:11;;;;;;;39.63;27.77;;;6.60;97.60;;;;;;5069782;27;37658;-52
2022/03/23 04:46:38;;;;;;;41.80;29.10;;;6.60;97.60;;;;;;5069540;27;37709;-52
2022/03/23 04:49:06;;;;;;;31.27;23.15;;;6.50;97.60;;;;;;5069293;27;38879;-53
2022/03/23 04:51:33;;;;;;;37.45;26.05;;;6.60;97.40;;;;;;5067463;27;37912;-53
2022/03/23 04:54:02;;;;;;;34.72;22.38;;;6.50;97.30;;;;;;5067006;28;37365;-52
2022/03/23 04:56:30;;;;;;;38.35;24.17;;;6.50;97.20;;;;;;5068297;28;38374;-52
2022/03/23 04:58:59;;;;;;;33.40;22.90;;;6.50;97.40;;;;;;5067853;27;38521;-51
2022/03/23 05:01:27;;;;;;;32.83;21.55;;;6.50;97.40;;;;;;5068786;28;37486;-52
2022/03/23 05:03:54;;;;;;;27.10;19.52;;;6.40;97.30;;;;;;5068318;28;36332;-53
2022/03/23 05:06:21;;;;;;;29.02;21.77;;;6.40;97.30;;;;;;5068563;27;37681;-53
2022/03/23 05:08:49;;;;;;;30.85;21.48;;;6.40;97.50;;;;;;5068996;28;38168;-52
2022/03/23 05:11:17;;;;;;;25.67;19.10;;;6.30;97.40;;;;;;5067411;28;39240;-52
2022/03/23 05:13:45;;;;;;;27.48;18.95;;;6.30;97.50;;;;;;5069213;28;37760;-52
2022/03/23 05:16:13;;;;;;;26.23;19.83;;;6.30;97.30;;;;;;5068762;27;38887;-51
2022/03/23 05:18:42;;;;;;;26.55;19.38;;;6.30;97.30;;;;;;5068527;28;36304;-53
2022/03/23 05:21:09;;;;;;;24.00;18.13;;;6.30;97.30;;;;;;5068800;28;37991;-50
2022/03/23 05:23:36;;;;;;;30.23;19.75;;;6.20;97.30;;;;;;5068357;27;36145;-52
2022/03/23 05:26:04;;;;;;;30.35;19.98;;;6.20;97.40;;;;;;5068370;27;38360;-49
2022/03/23 05:28:31;;;;;;;28.48;19.58;;;6.20;97.40;;;;;;5068635;27;37669;-51
2022/03/23 05:31:00;;;;;;;32.95;19.50;;;6.20;97.40;;;;;;5067805;27;35322;-52
2022/03/23 05:33:27;;;;;;;27.73;19.73;;;6.20;97.40;;;;;;5068434;27;36301;-52
2022/03/23 05:35:54;;;;;;;27.90;18.90;;;6.20;97.40;;;;;;5067155;27;37810;-50
2022/03/23 05:38:22;;;;;;;26.85;17.58;;;6.20;97.30;;;;;;5067180;28;37872;-53
2022/03/23 05:40:49;;;;;;;25.45;18.90;;;6.30;97.30;;;;;;5068488;27;36928;-52
2022/03/23 05:43:18;;;;;;;30.30;20.65;;;6.30;97.20;;;;;;5069115;27;37701;-52
2022/03/23 05:45:45;;;;;;;30.73;20.67;;;6.30;97.20;;;;;;5068792;27;38241;-52
2022/03/23 05:48:14;;;;;;;30.23;21.15;;;6.40;97.10;;;;;;5068087;28;38179;-51
2022/03/23 05:50:41;;;;;;;29.63;20.55;;;6.50;97.00;;;;;;5066900;28;36559;-53
2022/03/23 05:53:09;;;;;;;28.83;20.38;;;6.60;96.90;;;;;;5066641;27;37506;-52
2022/03/23 05:55:36;;;;;;;31.40;23.00;;;6.70;96.70;;;;;;5067990;27;37513;-53
2022/03/23 05:58:04;;;;;;;31.30;21.23;;;6.80;96.50;;;;;;5066231;28;37492;-53
2022/03/23 06:00:32;;;;;;;31.13;22.45;;;6.80;96.40;;;;;;5066498;28;35483;-53
2022/03/23 06:02:59;;;;;;;31.23;21.27;;;6.90;96.40;;;;;;5067554;28;40018;-53
2022/03/23 06:05:28;;;;;;;32.70;22.90;;;7.10;96.40;;;;;;5067022;28;38238;-51
2022/03/23 06:07:55;;;;;;;32.08;22.52;;;7.20;96.20;;;;;;5068163;28;37409;-50
2022/03/23 06:10:23;;;;;;;36.83;24.60;;;7.30;96.20;;;;;;5067460;27;35531;-52
2022/03/23 06:12:51;;;;;;;32.58;23.00;;;7.40;96.20;;;;;;5067940;27;37519;-52
2022/03/23 06:15:18;;;;;;;29.45;22.40;;;7.40;96.30;;;;;;5068164;27;38844;-50
2022/03/23 06:17:45;;;;;;;27.10;20.33;;;7.40;96.40;;;;;;5068217;27;36033;-52
2022/03/23 06:20:13;;;;;;;29.38;20.40;;;7.50;96.50;;;;;;5066615;27;36851;-52
2022/03/23 06:22:42;;;;;;;33.95;23.42;;;7.30;96.60;;;;;;5067805;27;37470;-52
2022/03/23 06:25:10;;;;;;;34.90;24.13;;;7.60;96.90;;;;;;5067821;28;37517;-53
2022/03/23 06:27:38;;;;;;;29.20;20.08;;;7.70;97.00;;;;;;5067707;28;38475;-51
2022/03/23 06:30:08;;;;;;;25.77;19.60;;;7.80;97.40;;;;;;5065487;27;36907;-54
2022/03/23 06:32:36;;;;;;;25.05;19.15;;;7.90;97.30;;;;;;5066995;27;38038;-53
2022/03/23 06:35:04;;;;;;;28.65;20.17;;;8.00;97.40;;;;;;5068058;28;39841;-53
2022/03/23 06:37:32;;;;;;;26.27;19.63;;;8.10;97.40;;;;;;5068471;27;38319;-49
2022/03/23 06:40:01;;;;;;;27.00;20.35;;;8.20;97.40;;;;;;5067836;27;35312;-54
2022/03/23 06:42:28;;;;;;;29.42;19.67;;;8.30;97.20;;;;;;5067934;28;37365;-53
2022/03/23 06:44:55;;;;;;;27.30;19.92;;;8.40;97.00;;;;;;5067995;27;37211;-54
2022/03/23 06:47:23;;;;;;;37.13;24.70;;;8.40;97.00;;;;;;5068142;27;37373;-52
2022/03/23 06:49:50;;;;;;;35.40;25.65;;;8.70;96.70;;;;;;5066363;28;35579;-53
2022/03/23 06:52:17;;;;;;;35.13;26.00;;;8.90;96.70;;;;;;5067870;27;38467;-53
2022/03/23 06:54:45;;;;;;;38.90;27.80;;;9.00;96.70;;;;;;5069031;27;38152;-53
2022/03/23 06:57:13;;;;;;;40.25;29.33;;;9.10;96.50;;;;;;5066493;27;37695;-53
2022/03/23 06:59:41;;;;;;;39.13;28.60;;;9.20;96.30;;;;;;5064237;28;38324;-53
2022/03/23 07:02:10;;;;;;;41.55;30.88;;;9.30;96.10;;;;;;5067211;27;38464;-53
2022/03/23 07:04:37;;;;;;;41.42;30.77;;;9.50;95.90;;;;;;5068034;28;36370;-52
2022/03/23 07:07:05;;;;;;;45.45;32.60;;;9.60;95.60;;;;;;5066905;27;38406;-51
2022/03/23 07:09:31;;;;;;;42.95;31.38;;;9.80;95.60;;;;;;5065884;28;37646;-55
2022/03/23 07:12:00;;;;;;;45.75;31.35;;;9.90;95.60;;;;;;5066244;27;38188;-53
2022/03/23 07:14:29;;;;;;;43.88;32.22;;;10.00;95.40;;;;;;5066183;27;37880;-53
2022/03/23 07:16:57;;;;;;;45.25;31.92;;;10.10;95.20;;;;;;5066635;28;37871;-51
2022/03/23 07:19:25;;;;;;;47.45;32.28;;;10.20;95.30;;;;;;5068618;27;36684;-52
2022/03/23 07:21:52;;;;;;;42.42;31.15;;;10.30;95.10;;;;;;5068447;28;36409;-53
2022/03/23 07:24:20;;;;;;;44.90;34.58;;;10.50;94.90;;;;;;5070144;27;38011;-53
2022/03/23 07:26:48;;;;;;;44.42;32.28;;;10.60;95.00;;;;;;5066690;27;38604;-52
2022/03/23 07:29:15;;;;;;;50.88;33.08;;;10.80;94.90;;;;;;5069137;28;37686;-53
2022/03/23 07:31:45;;;;;;;45.28;33.75;;;11.00;95.20;;;;;;5069363;28;40076;-53
2022/03/23 07:34:13;;;;;;;41.55;31.23;;;11.20;94.70;;;;;;5069337;27;36326;-52
2022/03/23 07:36:42;;;;;;;44.65;31.60;;;11.40;94.50;;;;;;5068240;27;38531;-53
2022/03/23 07:39:09;;;;;;;48.05;33.10;;;11.60;94.40;;;;;;5069776;27;35300;-53
2022/03/23 07:41:36;;;;;;;44.58;34.15;;;11.60;94.30;;;;;;5069658;27;37528;-53
2022/03/23 07:44:04;;;;;;;50.03;33.95;;;11.80;94.40;;;;;;5069164;28;37539;-53
2022/03/23 07:46:31;;;;;;;52.63;36.80;;;11.80;94.30;;;;;;5070122;28;36169;-53
2022/03/23 07:49:00;;;;;;;52.08;35.53;;;11.90;94.10;;;;;;5069443;27;36510;-52
2022/03/23 07:51:27;;;;;;;49.90;34.85;;;12.00;93.30;;;;;;5068271;27;38944;-52
2022/03/23 07:53:54;;;;;;;50.40;35.08;;;12.20;93.20;;;;;;5069850;27;37677;-53
2022/03/23 07:56:22;;;;;;;52.17;34.30;;;12.30;93.00;;;;;;5070200;28;37128;-53
2022/03/23 07:58:49;;;;;;;52.05;35.33;;;12.50;92.60;;;;;;5070381;27;36636;-53
2022/03/23 08:01:16;;;;;;;49.42;35.50;;;12.70;92.50;;;;;;5069596;28;36143;-53
2022/03/23 08:03:44;;;;;;;54.80;36.20;;;12.80;92.00;;;;;;5070143;27;37920;-54
2022/03/23 08:06:12;;;;;;;50.47;34.58;;;13.10;91.20;;;;;;5070178;28;38381;-52
2022/03/23 08:08:40;;;;;;;44.45;33.08;;;13.40;90.00;;;;;;5069223;27;38662;-53
2022/03/23 08:11:07;;;;;;;46.85;32.35;;;13.70;86.20;;;;;;5068595;27;35038;-54
2022/03/23 08:13:35;;;;;;;45.42;32.63;;;14.00;83.30;;;;;;5069328;27;38741;-54
2022/03/23 08:16:03;;;;;;;47.42;34.40;;;14.30;81.70;;;;;;5069140;28;38066;-54
2022/03/23 08:18:32;;;;;;;44.45;33.58;;;14.50;81.40;;;;;;5070204;27;36878;-55
2022/03/23 08:21:00;;;;;;;45.53;34.17;;;14.90;78.60;;;;;;5065096;27;37313;-55
2022/03/23 08:23:30;;;;;;;40.80;32.38;;;15.30;76.10;;;;;;5069390;27;36494;-53
2022/03/23 08:25:57;;;;;;;39.97;32.05;;;15.60;73.70;;;;;;5069052;27;38009;-53
2022/03/23 08:28:25;;;;;;;38.22;29.92;;;15.90;72.10;;;;;;5068125;27;36988;-53
2022/03/23 08:30:52;;;;;;;37.00;29.55;;;16.10;68.70;;;;;;5068612;27;37684;-53
2022/03/23 08:33:20;;;;;;;38.45;28.40;;;16.30;66.10;;;;;;5068655;27;37672;-53
2022/03/23 08:35:47;;;;;;;36.65;28.80;;;16.50;62.50;;;;;;5068876;27;37123;-53
2022/03/23 08:38:14;;;;;;;34.55;25.92;;;16.80;60.50;;;;;;5069202;28;37526;-52
2022/03/23 08:40:44;;;;;;;36.80;28.67;;;16.90;58.40;;;;;;5070163;27;39515;-53
2022/03/23 08:43:12;;;;;;;33.65;28.45;;;17.10;57.10;;;;;;5069547;27;37513;-53
2022/03/23 08:45:43;;;;;;;36.35;29.33;;;17.30;56.20;;;;;;5069841;27;37485;-53
2022/03/23 08:48:11;;;;;;;31.60;25.00;;;17.50;55.00;;;;;;5068981;28;37700;-53
2022/03/23 08:50:40;;;;;;;31.60;26.10;;;17.60;53.80;;;;;;5067470;28;37883;-53
2022/03/23 08:53:07;;;;;;;32.40;27.42;;;17.80;51.80;;;;;;5068907;28;37728;-53
2022/03/23 08:55:35;;;;;;;30.60;25.45;;;18.00;50.80;;;;;;5069752;27;37081;-52
2022/03/23 08:58:04;;;;;;;33.00;26.60;;;17.90;50.20;;;;;;5067497;28;36697;-53
2022/03/23 09:00:31;;;;;;;32.53;27.13;;;17.90;50.00;;;;;;5067096;27;38963;-53
2022/03/23 09:02:58;;;;;;;34.17;25.35;;;18.00;49.70;;;;;;5067937;27;37689;-53
2022/03/23 09:05:26;;;;;;;32.53;24.88;;;18.10;49.30;;;;;;5068022;27;37487;-53
2022/03/23 09:07:54;;;;;;;31.02;24.55;;;18.30;48.90;;;;;;5067378;28;37002;-53
2022/03/23 09:10:23;;;;;;;31.77;26.98;;;18.60;48.50;;;;;;5067505;28;37573;-53
2022/03/23 09:12:50;;;;;;;31.98;26.83;;;18.80;47.70;;;;;;5068668;28;38286;-51
2022/03/23 09:15:19;;;;;;;33.58;25.48;;;19.20;46.70;;;;;;5068780;27;37937;-53
2022/03/23 09:17:47;;;;;;;29.63;25.33;;;19.50;46.00;;;;;;5069948;27;35395;-53
2022/03/23 09:20:16;;;;;;;36.85;26.17;;;19.60;45.00;;;;;;5068940;28;37034;-53
2022/03/23 09:22:44;;;;;;;33.53;25.38;;;19.90;44.00;;;;;;5068866;27;37294;-53
2022/03/23 09:25:13;;;;;;;32.25;24.75;;;20.20;43.00;;;;;;5069203;27;39818;-53
2022/03/23 09:27:43;;;;;;;29.05;23.40;;;20.50;41.80;;;;;;5066874;27;35414;-53
2022/03/23 09:30:13;;;;;;;26.48;22.17;;;20.80;40.60;;;;;;5066112;27;38556;-53
2022/03/23 09:32:43;;;;;;;33.72;22.17;;;21.00;39.40;;;;;;5061618;27;37716;-53
2022/03/23 09:35:11;;;;;;;33.65;24.20;;;21.20;39.10;;;;;;5067653;27;37435;-53
2022/03/23 09:37:48;;;;;;;27.63;23.05;;;21.50;38.70;;;;;;5067970;27;36585;-53
2022/03/23 09:40:18;;;;;;;29.05;22.38;;;21.50;38.00;;;;;;5069336;27;36219;-53
2022/03/23 09:42:46;;;;;;;28.42;20.55;;;21.40;38.80;;;;;;5068645;27;38607;-53
2022/03/23 09:45:21;;;;;;;25.25;21.35;;;21.40;37.30;;;;;;5068465;27;38811;-53
2022/03/23 09:47:50;;;;;;;27.80;20.65;;;21.30;37.70;;;;;;5068468;27;36779;-54
2022/03/23 09:50:18;;;;;;;28.45;19.45;;;21.30;37.50;;;;;;5067690;28;40961;-53
2022/03/23 09:52:47;;;;;;;23.13;18.13;;;21.40;36.50;;;;;;5067181;27;40771;-53
2022/03/23 09:55:14;;;;;;;22.65;17.35;;;21.60;35.40;;;;;;5067583;27;38086;-53
2022/03/23 09:57:41;;;;;;;24.98;17.92;;;21.90;34.00;;;;;;5068186;28;36901;-53
2022/03/23 10:00:12;;;;;;;22.85;18.02;;;22.20;32.90;;;;;;5067592;27;37643;-53
2022/03/23 10:03:22;;;;;;;23.00;16.25;;;22.60;32.30;;;;;;5067561;27;38166;-53
2022/03/23 10:06:34;;;;;;;20.80;16.13;;;23.10;30.00;;;;;;5067987;27;39123;-53
2022/03/23 10:09:41;;;;;;;19.35;15.32;;;23.20;28.00;;;;;;5044692;27;38661;-53
2022/03/23 10:12:45;;;;;;;19.05;15.65;;;23.00;29.60;;;;;;5068882;27;20121;-56
2022/03/23 10:15:46;;;;;;;24.20;16.63;;;22.70;29.00;;;;;;5045096;28;36450;-55
2022/03/23 10:18:50;;;;;;;22.98;16.23;;;22.60;29.50;;;;;;5067322;27;37261;-55
2022/03/23 10:21:17;;;;;;;22.35;15.60;;;22.60;29.30;;;;;;5068315;28;35485;-56
2022/03/23 10:24:33;;;;;;;19.52;15.85;;;22.50;30.00;;;;;;5068458;27;37031;-56
2022/03/23 10:27:05;;;;;;;21.42;15.75;;;22.50;30.30;;;;;;5065498;27;40283;-53
2022/03/23 10:29:33;;;;;;;21.33;15.70;;;22.70;30.70;;;;;;5067969;28;37491;-53
2022/03/23 10:32:05;;;;;;;21.38;16.13;;;23.00;30.00;;;;;;5068348;28;37310;-53
2022/03/23 10:34:44;;;;;;;25.65;16.67;;;23.50;29.50;;;;;;5067662;28;37589;-53
2022/03/23 10:37:13;;;;;;;20.95;16.25;;;23.90;28.90;;;;;;5068225;28;37563;-53
2022/03/23 10:39:42;;;;;;;18.42;15.40;;;24.30;28.50;;;;;;5068186;28;38563;-54
2022/03/23 10:42:14;;;;;;;26.52;15.98;;;24.50;27.90;;;;;;5067729;27;37035;-54
2022/03/23 10:44:42;;;;;;;21.25;16.92;;;24.70;27.90;;;;;;5067058;27;37689;-54
2022/03/23 10:47:22;;;;;;;24.27;16.13;;;24.90;27.90;;;;;;5068033;27;37959;-54
2022/03/23 10:49:49;;;;;;;23.02;15.75;;;24.90;26.50;;;;;;5066682;28;38950;-54
2022/03/23 10:52:18;;;;;;;21.20;15.82;;;24.80;26.90;;;;;;5068312;27;36857;-54
2022/03/23 10:54:58;;;;;;;21.10;14.68;;;24.80;27.40;;;;;;5069473;28;37416;-54
2022/03/23 10:57:57;;;;;;;20.65;15.35;;;24.60;26.30;;;;;;5070984;27;37767;-54
2022/03/23 11:00:30;;;;;;;23.20;16.50;;;24.40;26.60;;;;;;5068667;28;38773;-54
2022/03/23 11:02:58;;;;;;;;;;;24.00;27.80;;;;;;5070125;28;36628;-54
2022/03/23 11:05:32;;;;;;;18.67;13.30;;;23.70;27.40;;;;;;5069593;27;36353;-54
2022/03/23 11:08:11;;;;;;;24.98;14.27;;;23.40;28.30;;;;;;5069169;27;37455;-54
2022/03/23 11:16:13;;;;;;;21.05;12.65;;;23.00;28.40;;;;;;5070851;28;38482;-54
2022/03/23 11:18:40;;;;;;;22.75;9.77;;;22.90;28.50;;;;;;5070150;28;37554;-54
2022/03/23 11:21:08;;;;;;;20.55;11.60;;;22.80;28.10;;;;;;5070111;27;37689;-54
2022/03/23 11:23:37;;;;;;;23.27;11.80;;;22.80;28.70;;;;;;5070718;27;37934;-53
2022/03/23 11:26:08;;;;;;;23.55;14.00;;;22.70;28.50;;;;;;5070587;28;39900;-54
2022/03/23 11:28:37;;;;;;;20.88;12.60;;;22.70;28.60;;;;;;5069964;27;37761;-53
2022/03/23 11:31:07;;;;;;;22.05;12.73;;;22.70;29.50;;;;;;5070173;28;37414;-53
2022/03/23 11:33:35;;;;;;;23.52;14.32;;;22.50;29.50;;;;;;5070799;27;35621;-54
2022/03/23 11:36:04;;;;;;;21.08;12.90;;;22.50;29.10;;;;;;5070184;28;36234;-53
2022/03/23 11:38:33;;;;;;;22.45;10.88;;;22.40;29.20;;;;;;5069406;27;36706;-54
2022/03/23 11:41:01;;;;;;;21.13;10.57;;;22.40;28.80;;;;;;5066492;27;39453;-54
2022/03/23 11:43:32;;;;;;;21.40;10.15;;;22.40;29.00;;;;;;5065898;28;36172;-54
2022/03/23 11:46:00;;;;;;;23.80;10.55;;;22.40;28.70;;;;;;5067986;27;36145;-54
2022/03/23 11:48:48;;;;;;;21.50;11.13;;;22.40;28.40;;;;;;5067851;27;38343;-53
2022/03/23 11:51:27;;;;;;;19.33;11.30;;;22.40;28.50;;;;;;5066883;28;38246;-54
2022/03/23 11:54:07;;;;;;;25.95;11.90;;;22.30;27.90;;;;;;5068960;27;37008;-53
2022/03/23 11:56:43;;;;;;;17.90;10.82;;;22.20;28.50;;;;;;5068290;27;38230;-54
2022/03/23 11:59:25;;;;;;;18.00;10.55;;;22.10;29.00;;;;;;5068525;28;36235;-54
2022/03/23 12:01:54;;;;;;;18.75;10.80;;;22.20;28.90;;;;;;5065595;28;38843;-54
2022/03/23 12:04:22;;;;;;;19.42;11.52;;;22.20;29.20;;;;;;5066543;27;36813;-53
2022/03/23 12:06:59;;;;;;;20.95;9.90;;;22.10;28.80;;;;;;5068664;27;38141;-54
2022/03/23 12:09:45;;;;;;;23.42;8.77;;;22.10;28.30;;;;;;5067903;27;37502;-53
2022/03/23 12:12:13;;;;;;;17.80;8.77;;;21.90;28.90;;;;;;5069791;27;39707;-54
2022/03/23 12:14:43;;;;;;;21.75;8.65;;;21.90;29.20;;;;;;5069982;27;36129;-54
2022/03/23 12:17:18;;;;;;;21.58;9.57;;;21.80;28.90;;;;;;5068413;28;37784;-54
2022/03/23 12:20:11;;;;;;;22.58;10.38;;;21.70;28.90;;;;;;5068529;28;37567;-54
2022/03/23 12:23:18;;;;;;;26.23;10.93;;;21.60;28.80;;;;;;5064903;28;37508;-54
2022/03/23 12:25:56;;;;;;;21.25;11.98;;;21.50;28.50;;;;;;5064264;28;35445;-53
2022/03/23 12:28:38;;;;;;;20.13;12.10;;;21.40;29.10;;;;;;5069285;27;38045;-54
2022/03/23 12:31:10;;;;;;;22.48;10.75;;;21.30;29.30;;;;;;5069206;27;39012;-54
2022/03/23 12:33:59;;;;;;;23.92;10.70;;;21.20;30.30;;;;;;5069044;28;38187;-54
2022/03/23 12:36:56;;;;;;;22.20;11.07;;;21.10;29.40;;;;;;5068422;27;37964;-54
2022/03/23 12:39:35;;;;;;;21.20;9.75;;;21.00;30.00;;;;;;5068491;28;37064;-54
2022/03/23 12:42:17;;;;;;;20.88;10.60;;;20.90;29.80;;;;;;5068772;27;38007;-54
2022/03/23 12:44:47;;;;;;;19.48;9.57;;;20.90;29.90;;;;;;5068671;27;39113;-53
2022/03/23 12:47:20;;;;;;;21.98;10.05;;;20.80;30.80;;;;;;5067962;28;37470;-54
2022/03/23 12:58:11;;;;;;;17.30;9.95;;;20.40;33.80;;;;;;5068711;28;38741;-53
2022/03/23 13:00:43;;;;;;;21.65;9.10;;;20.30;33.30;;;;;;5069232;27;37585;-53
2022/03/23 13:03:41;;;;;;;18.10;9.55;;;20.20;33.10;;;;;;5068844;28;40184;-53
2022/03/23 13:06:11;;;;;;;22.65;10.05;;;20.10;32.50;;;;;;5068589;27;38169;-58
2022/03/23 13:08:46;;;;;;;28.27;9.13;;;20.10;33.40;;;;;;5068855;28;36267;-52
2022/03/23 13:11:13;;;;;;;28.30;9.95;;;20.10;34.10;;;;;;5067213;27;36267;-54
2022/03/23 13:13:42;;;;;;;22.80;10.13;;;20.00;34.00;;;;;;5069111;27;37849;-53